sensor_id;sensor_type;location;lat;lon;timestamp;pressure;altitude;pressure_sealevel;temperature;humidity
2711;BME280;20721;47.402;8.550;2023-04-10T00:00:00;96552;;;9.19;47.63
2711;BME280;20721;47.402;8.550;2023-04-10T00:01:00;96556;;;9.22;47.63
2711;BME280;20721;47.402;8.550;2023-04-10T00:02:01;96552;;;9.23;47.48
2711;BME280;20721;47.402;8.550;2023-04-10T00:03:01;96555;;;9.25;47.50
2711;BME280;20721;47.402;8.550;2023-04-10T00:04:02;96550;;;9.27;47.50
2711;BME280;20721;47.402;8.550;2023-04-10T00:06:01;96548;;;9.26;47.56
2711;BME280;20721;47.402;8.550;2023-04-10T00:09:01;96546;;;9.24;47.64
2711;BME280;20721;47.402;8.550;2023-04-10T00:11:01;96542;;;9.23;47.63
2711;BME280;20721;47.402;8.550;2023-04-10T00:12:01;96542;;;9.24;47.62
2711;BME280;20721;47.402;8.550;2023-04-10T00:13:02;96540;;;9.21;47.70
2711;BME280;20721;47.402;8.550;2023-04-10T00:14:01;96542;;;9.20;47.66
2711;BME280;20721;47.402;8.550;2023-04-10T00:16:01;96543;;;9.17;47.72
2711;BME280;20721;47.402;8.550;2023-04-10T00:17:01;96541;;;9.14;47.85
2711;BME280;20721;47.402;8.550;2023-04-10T00:18:01;96545;;;9.11;47.84
2711;BME280;20721;47.402;8.550;2023-04-10T00:19:01;96541;;;9.06;47.99
2711;BME280;20721;47.402;8.550;2023-04-10T00:20:01;96544;;;9.03;48.18
2711;BME280;20721;47.402;8.550;2023-04-10T00:21:02;96545;;;9.05;48.15
2711;BME280;20721;47.402;8.550;2023-04-10T00:23:01;96541;;;9.09;48.13
2711;BME280;20721;47.402;8.550;2023-04-10T00:24:01;96539;;;9.11;48.07
2711;BME280;20721;47.402;8.550;2023-04-10T00:26:01;96541;;;9.10;48.06
2711;BME280;20721;47.402;8.550;2023-04-10T00:27:01;96534;;;9.09;48.15
2711;BME280;20721;47.402;8.550;2023-04-10T00:28:01;96536;;;9.04;48.21
2711;BME280;20721;47.402;8.550;2023-04-10T00:29:01;96536;;;9.02;48.38
2711;BME280;20721;47.402;8.550;2023-04-10T00:30:01;96537;;;9.00;48.45
2711;BME280;20721;47.402;8.550;2023-04-10T00:31:01;96540;;;9.01;48.48
2711;BME280;20721;47.402;8.550;2023-04-10T00:33:01;96538;;;9.02;48.32
2711;BME280;20721;47.402;8.550;2023-04-10T00:34:01;96535;;;9.03;48.42
2711;BME280;20721;47.402;8.550;2023-04-10T00:35:01;96536;;;9.04;48.52
2711;BME280;20721;47.402;8.550;2023-04-10T00:37:01;96536;;;9.06;48.33
2711;BME280;20721;47.402;8.550;2023-04-10T00:38:01;96535;;;9.08;48.27
2711;BME280;20721;47.402;8.550;2023-04-10T00:39:01;96534;;;9.06;48.34
2711;BME280;20721;47.402;8.550;2023-04-10T00:40:01;96533;;;9.07;48.28
2711;BME280;20721;47.402;8.550;2023-04-10T00:41:01;96531;;;8.95;48.53
2711;BME280;20721;47.402;8.550;2023-04-10T00:42:01;96531;;;8.92;48.57
2711;BME280;20721;47.402;8.550;2023-04-10T00:43:01;96534;;;8.89;48.76
2711;BME280;20721;47.402;8.550;2023-04-10T00:44:01;96537;;;8.83;48.83
2711;BME280;20721;47.402;8.550;2023-04-10T00:45:01;96534;;;8.84;48.84
2711;BME280;20721;47.402;8.550;2023-04-10T00:46:01;96534;;;8.86;48.86
2711;BME280;20721;47.402;8.550;2023-04-10T00:47:01;96534;;;8.88;48.72
2711;BME280;20721;47.402;8.550;2023-04-10T00:48:02;96533;;;8.91;48.73
2711;BME280;20721;47.402;8.550;2023-04-10T00:50:01;96533;;;8.89;48.72
2711;BME280;20721;47.402;8.550;2023-04-10T00:52:01;96535;;;8.88;48.88
2711;BME280;20721;47.402;8.550;2023-04-10T00:53:01;96536;;;8.89;48.81
2711;BME280;20721;47.402;8.550;2023-04-10T00:54:01;96536;;;8.88;48.84
2711;BME280;20721;47.402;8.550;2023-04-10T00:56:01;96540;;;8.87;48.90
2711;BME280;20721;47.402;8.550;2023-04-10T00:57:02;96541;;;8.86;49.00
2711;BME280;20721;47.402;8.550;2023-04-10T00:58:01;96541;;;8.84;48.89
2711;BME280;20721;47.402;8.550;2023-04-10T00:59:01;96547;;;8.79;49.04
2711;BME280;20721;47.402;8.550;2023-04-10T01:00:01;96548;;;8.75;49.19
2711;BME280;20721;47.402;8.550;2023-04-10T01:01:02;96548;;;8.72;49.22
2711;BME280;20721;47.402;8.550;2023-04-10T01:02:06;96544;;;8.70;49.31
2711;BME280;20721;47.402;8.550;2023-04-10T01:03:01;96545;;;8.71;49.36
2711;BME280;20721;47.402;8.550;2023-04-10T01:05:01;96544;;;8.73;49.34
2711;BME280;20721;47.402;8.550;2023-04-10T01:07:03;96549;;;8.75;49.26
2711;BME280;20721;47.402;8.550;2023-04-10T01:08:04;96543;;;8.74;49.31
2711;BME280;20721;47.402;8.550;2023-04-10T01:09:04;96546;;;8.75;49.35
2711;BME280;20721;47.402;8.550;2023-04-10T01:10:09;96546;;;8.76;49.31
2711;BME280;20721;47.402;8.550;2023-04-10T01:11:09;96540;;;8.77;49.31
2711;BME280;20721;47.402;8.550;2023-04-10T01:15:03;96545;;;8.73;49.32
2711;BME280;20721;47.402;8.550;2023-04-10T01:16:08;96544;;;8.70;49.46
2711;BME280;20721;47.402;8.550;2023-04-10T01:19:12;96543;;;8.67;49.43
2711;BME280;20721;47.402;8.550;2023-04-10T01:21:01;96540;;;8.57;49.78
2711;BME280;20721;47.402;8.550;2023-04-10T01:22:01;96540;;;8.53;49.88
2711;BME280;20721;47.402;8.550;2023-04-10T01:26:02;96539;;;8.59;49.89
2711;BME280;20721;47.402;8.550;2023-04-10T01:28:04;96541;;;8.62;49.74
2711;BME280;20721;47.402;8.550;2023-04-10T01:29:08;96541;;;8.60;49.71
2711;BME280;20721;47.402;8.550;2023-04-10T01:31:01;96543;;;8.61;49.81
2711;BME280;20721;47.402;8.550;2023-04-10T01:32:07;96540;;;8.62;49.62
2711;BME280;20721;47.402;8.550;2023-04-10T01:34:04;96542;;;8.59;49.79
2711;BME280;20721;47.402;8.550;2023-04-10T01:35:02;96537;;;8.57;49.82
2711;BME280;20721;47.402;8.550;2023-04-10T01:36:02;96538;;;8.58;49.96
2711;BME280;20721;47.402;8.550;2023-04-10T01:39:06;96534;;;8.61;49.87
2711;BME280;20721;47.402;8.550;2023-04-10T01:41:01;96535;;;8.64;49.83
2711;BME280;20721;47.402;8.550;2023-04-10T01:42:01;96539;;;8.63;50.01
2711;BME280;20721;47.402;8.550;2023-04-10T01:44:02;96542;;;8.62;49.95
2711;BME280;20721;47.402;8.550;2023-04-10T01:45:01;96537;;;8.60;50.01
2711;BME280;20721;47.402;8.550;2023-04-10T01:47:01;96538;;;8.61;49.86
2711;BME280;20721;47.402;8.550;2023-04-10T01:48:01;96542;;;8.58;49.80
2711;BME280;20721;47.402;8.550;2023-04-10T01:49:01;96538;;;8.55;49.92
2711;BME280;20721;47.402;8.550;2023-04-10T01:50:01;96541;;;8.48;50.05
2711;BME280;20721;47.402;8.550;2023-04-10T01:51:02;96541;;;8.43;50.15
2711;BME280;20721;47.402;8.550;2023-04-10T01:52:01;96542;;;8.40;50.38
2711;BME280;20721;47.402;8.550;2023-04-10T01:53:02;96546;;;8.38;50.50
2711;BME280;20721;47.402;8.550;2023-04-10T01:55:01;96543;;;8.40;50.48
2711;BME280;20721;47.402;8.550;2023-04-10T01:56:02;96547;;;8.42;50.48
2711;BME280;20721;47.402;8.550;2023-04-10T01:57:02;96548;;;8.43;50.58
2711;BME280;20721;47.402;8.550;2023-04-10T01:58:01;96545;;;8.42;50.59
2711;BME280;20721;47.402;8.550;2023-04-10T01:59:02;96549;;;8.45;50.41
2711;BME280;20721;47.402;8.550;2023-04-10T02:00:01;96549;;;8.48;50.35
2711;BME280;20721;47.402;8.550;2023-04-10T02:01:01;96546;;;8.46;50.49
2711;BME280;20721;47.402;8.550;2023-04-10T02:03:01;96543;;;8.48;50.33
2711;BME280;20721;47.402;8.550;2023-04-10T02:05:01;96540;;;8.45;50.29
2711;BME280;20721;47.402;8.550;2023-04-10T02:07:02;96539;;;8.38;50.43
2711;BME280;20721;47.402;8.550;2023-04-10T02:08:04;96538;;;8.32;50.43
2711;BME280;20721;47.402;8.550;2023-04-10T02:09:05;96537;;;8.27;50.52
2711;BME280;20721;47.402;8.550;2023-04-10T02:10:03;96537;;;8.25;50.64
2711;BME280;20721;47.402;8.550;2023-04-10T02:11:06;96538;;;8.24;50.58
2711;BME280;20721;47.402;8.550;2023-04-10T02:12:03;96536;;;8.22;50.83
2711;BME280;20721;47.402;8.550;2023-04-10T02:14:03;96538;;;8.23;50.73
2711;BME280;20721;47.402;8.550;2023-04-10T02:15:01;96537;;;8.22;50.67
2711;BME280;20721;47.402;8.550;2023-04-10T02:16:06;96537;;;8.21;50.76
2711;BME280;20721;47.402;8.550;2023-04-10T02:17:01;96536;;;8.22;50.75
2711;BME280;20721;47.402;8.550;2023-04-10T02:18:03;96539;;;8.23;50.67
2711;BME280;20721;47.402;8.550;2023-04-10T02:20:01;96542;;;8.19;50.79
2711;BME280;20721;47.402;8.550;2023-04-10T02:21:01;96540;;;8.15;50.94
2711;BME280;20721;47.402;8.550;2023-04-10T02:22:02;96537;;;8.12;50.93
2711;BME280;20721;47.402;8.550;2023-04-10T02:23:02;96537;;;8.13;50.98
2711;BME280;20721;47.402;8.550;2023-04-10T02:25:02;96535;;;8.14;50.69
2711;BME280;20721;47.402;8.550;2023-04-10T02:26:08;96536;;;8.13;50.73
2711;BME280;20721;47.402;8.550;2023-04-10T02:27:01;96535;;;8.09;50.79
2711;BME280;20721;47.402;8.550;2023-04-10T02:28:03;96533;;;8.05;50.93
2711;BME280;20721;47.402;8.550;2023-04-10T02:29:01;96538;;;8.02;50.94
2711;BME280;20721;47.402;8.550;2023-04-10T02:30:02;96539;;;8.03;50.97
2711;BME280;20721;47.402;8.550;2023-04-10T02:31:01;96542;;;7.99;51.02
2711;BME280;20721;47.402;8.550;2023-04-10T02:32:01;96537;;;7.98;51.14
2711;BME280;20721;47.402;8.550;2023-04-10T02:33:01;96539;;;7.96;51.08
2711;BME280;20721;47.402;8.550;2023-04-10T02:34:01;96537;;;7.95;51.09
2711;BME280;20721;47.402;8.550;2023-04-10T02:35:02;96536;;;7.93;51.06
2711;BME280;20721;47.402;8.550;2023-04-10T02:36:01;96535;;;7.91;51.14
2711;BME280;20721;47.402;8.550;2023-04-10T02:37:01;96537;;;7.90;51.18
2711;BME280;20721;47.402;8.550;2023-04-10T02:40:01;96535;;;7.88;51.25
2711;BME280;20721;47.402;8.550;2023-04-10T02:41:01;96535;;;7.86;51.37
2711;BME280;20721;47.402;8.550;2023-04-10T02:42:01;96537;;;7.88;51.28
2711;BME280;20721;47.402;8.550;2023-04-10T02:43:01;96535;;;7.87;51.36
2711;BME280;20721;47.402;8.550;2023-04-10T02:44:01;96538;;;7.88;51.25
2711;BME280;20721;47.402;8.550;2023-04-10T02:46:01;96537;;;7.86;51.17
2711;BME280;20721;47.402;8.550;2023-04-10T02:48:01;96543;;;7.87;51.32
2711;BME280;20721;47.402;8.550;2023-04-10T02:49:01;96547;;;7.88;51.26
2711;BME280;20721;47.402;8.550;2023-04-10T02:51:01;96551;;;7.86;51.39
2711;BME280;20721;47.402;8.550;2023-04-10T02:52:01;96551;;;7.84;51.39
2711;BME280;20721;47.402;8.550;2023-04-10T02:53:06;96553;;;7.77;51.68
2711;BME280;20721;47.402;8.550;2023-04-10T02:55:01;96552;;;7.78;51.52
2711;BME280;20721;47.402;8.550;2023-04-10T02:56:01;96551;;;7.79;51.41
2711;BME280;20721;47.402;8.550;2023-04-10T02:57:01;96550;;;7.77;51.49
2711;BME280;20721;47.402;8.550;2023-04-10T02:59:01;96548;;;7.73;51.52
2711;BME280;20721;47.402;8.550;2023-04-10T03:00:02;96549;;;7.70;51.49
2711;BME280;20721;47.402;8.550;2023-04-10T03:01:01;96549;;;7.68;51.66
2711;BME280;20721;47.402;8.550;2023-04-10T03:02:01;96549;;;7.65;51.66
2711;BME280;20721;47.402;8.550;2023-04-10T03:03:01;96548;;;7.63;51.65
2711;BME280;20721;47.402;8.550;2023-04-10T03:05:01;96552;;;7.62;51.70
2711;BME280;20721;47.402;8.550;2023-04-10T03:06:01;96552;;;7.55;51.71
2711;BME280;20721;47.402;8.550;2023-04-10T03:07:01;96549;;;7.45;51.98
2711;BME280;20721;47.402;8.550;2023-04-10T03:08:01;96549;;;7.40;52.14
2711;BME280;20721;47.402;8.550;2023-04-10T03:09:01;96548;;;7.41;52.13
2711;BME280;20721;47.402;8.550;2023-04-10T03:10:01;96547;;;7.39;52.19
2711;BME280;20721;47.402;8.550;2023-04-10T03:12:01;96552;;;7.44;52.32
2711;BME280;20721;47.402;8.550;2023-04-10T03:13:01;96548;;;7.48;52.24
2711;BME280;20721;47.402;8.550;2023-04-10T03:14:01;96552;;;7.51;52.12
2711;BME280;20721;47.402;8.550;2023-04-10T03:15:01;96551;;;7.54;52.07
2711;BME280;20721;47.402;8.550;2023-04-10T03:16:01;96552;;;7.57;52.07
2711;BME280;20721;47.402;8.550;2023-04-10T03:17:01;96553;;;7.60;51.94
2711;BME280;20721;47.402;8.550;2023-04-10T03:19:01;96550;;;7.59;51.80
2711;BME280;20721;47.402;8.550;2023-04-10T03:20:01;96550;;;7.54;51.94
2711;BME280;20721;47.402;8.550;2023-04-10T03:21:01;96545;;;7.44;52.15
2711;BME280;20721;47.402;8.550;2023-04-10T03:22:02;96543;;;7.42;52.26
2711;BME280;20721;47.402;8.550;2023-04-10T03:23:02;96542;;;7.39;52.34
2711;BME280;20721;47.402;8.550;2023-04-10T03:24:01;96542;;;7.40;52.28
2711;BME280;20721;47.402;8.550;2023-04-10T03:25:01;96543;;;7.42;52.23
2711;BME280;20721;47.402;8.550;2023-04-10T03:26:01;96539;;;7.45;52.16
2711;BME280;20721;47.402;8.550;2023-04-10T03:27:01;96539;;;7.44;52.23
2711;BME280;20721;47.402;8.550;2023-04-10T03:28:01;96539;;;7.46;52.11
2711;BME280;20721;47.402;8.550;2023-04-10T03:29:01;96539;;;7.52;52.10
2711;BME280;20721;47.402;8.550;2023-04-10T03:30:06;96539;;;7.54;52.05
2711;BME280;20721;47.402;8.550;2023-04-10T03:31:02;96536;;;7.46;52.09
2711;BME280;20721;47.402;8.550;2023-04-10T03:32:01;96538;;;7.47;52.08
2711;BME280;20721;47.402;8.550;2023-04-10T03:33:01;96535;;;7.43;52.19
2711;BME280;20721;47.402;8.550;2023-04-10T03:34:01;96536;;;7.44;52.23
2711;BME280;20721;47.402;8.550;2023-04-10T03:37:02;96537;;;7.47;52.20
2711;BME280;20721;47.402;8.550;2023-04-10T03:38:01;96535;;;7.51;52.17
2711;BME280;20721;47.402;8.550;2023-04-10T03:39:01;96538;;;7.55;52.05
2711;BME280;20721;47.402;8.550;2023-04-10T03:41:01;96533;;;7.53;52.10
2711;BME280;20721;47.402;8.550;2023-04-10T03:42:01;96534;;;7.46;52.24
2711;BME280;20721;47.402;8.550;2023-04-10T03:43:01;96530;;;7.37;52.41
2711;BME280;20721;47.402;8.550;2023-04-10T03:44:02;96528;;;7.33;52.41
2711;BME280;20721;47.402;8.550;2023-04-10T03:45:03;96531;;;7.29;52.49
2711;BME280;20721;47.402;8.550;2023-04-10T03:46:01;96530;;;7.28;52.53
2711;BME280;20721;47.402;8.550;2023-04-10T03:48:01;96535;;;7.27;52.55
2711;BME280;20721;47.402;8.550;2023-04-10T03:49:01;96531;;;7.29;52.54
2711;BME280;20721;47.402;8.550;2023-04-10T03:50:01;96535;;;7.31;52.60
2711;BME280;20721;47.402;8.550;2023-04-10T03:51:01;96532;;;7.35;52.35
2711;BME280;20721;47.402;8.550;2023-04-10T03:53:01;96527;;;7.34;52.47
2711;BME280;20721;47.402;8.550;2023-04-10T03:54:01;96530;;;7.22;52.56
2711;BME280;20721;47.402;8.550;2023-04-10T03:55:01;96526;;;7.19;52.70
2711;BME280;20721;47.402;8.550;2023-04-10T03:56:02;96526;;;7.14;52.79
2711;BME280;20721;47.402;8.550;2023-04-10T03:57:01;96527;;;7.08;52.99
2711;BME280;20721;47.402;8.550;2023-04-10T03:58:01;96530;;;7.02;53.02
2711;BME280;20721;47.402;8.550;2023-04-10T03:59:01;96531;;;7.06;52.98
2711;BME280;20721;47.402;8.550;2023-04-10T04:00:02;96531;;;7.11;52.94
2711;BME280;20721;47.402;8.550;2023-04-10T04:01:01;96526;;;7.16;52.86
2711;BME280;20721;47.402;8.550;2023-04-10T04:02:01;96526;;;7.23;52.81
2711;BME280;20721;47.402;8.550;2023-04-10T04:03:03;96526;;;7.32;52.60
2711;BME280;20721;47.402;8.550;2023-04-10T04:04:02;96526;;;7.34;52.39
2711;BME280;20721;47.402;8.550;2023-04-10T04:06:01;96521;;;7.36;52.40
2711;BME280;20721;47.402;8.550;2023-04-10T04:07:01;96523;;;7.38;52.33
2711;BME280;20721;47.402;8.550;2023-04-10T04:09:01;96520;;;7.39;52.55
2711;BME280;20721;47.402;8.550;2023-04-10T04:10:01;96519;;;7.38;52.53
2711;BME280;20721;47.402;8.550;2023-04-10T04:11:01;96520;;;7.36;52.62
2711;BME280;20721;47.402;8.550;2023-04-10T04:12:01;96514;;;7.28;52.74
2711;BME280;20721;47.402;8.550;2023-04-10T04:13:01;96515;;;7.18;52.80
2711;BME280;20721;47.402;8.550;2023-04-10T04:14:01;96518;;;7.12;53.08
2711;BME280;20721;47.402;8.550;2023-04-10T04:15:01;96519;;;7.10;53.20
2711;BME280;20721;47.402;8.550;2023-04-10T04:16:01;96520;;;7.09;53.30
2711;BME280;20721;47.402;8.550;2023-04-10T04:18:01;96524;;;7.11;53.21
2711;BME280;20721;47.402;8.550;2023-04-10T04:19:01;96526;;;7.13;53.22
2711;BME280;20721;47.402;8.550;2023-04-10T04:20:01;96525;;;7.16;53.19
2711;BME280;20721;47.402;8.550;2023-04-10T04:21:01;96524;;;7.18;53.11
2711;BME280;20721;47.402;8.550;2023-04-10T04:22:01;96520;;;7.21;53.10
2711;BME280;20721;47.402;8.550;2023-04-10T04:23:01;96522;;;7.24;53.15
2711;BME280;20721;47.402;8.550;2023-04-10T04:24:01;96524;;;7.25;52.95
2711;BME280;20721;47.402;8.550;2023-04-10T04:25:02;96522;;;7.27;52.83
2711;BME280;20721;47.402;8.550;2023-04-10T04:27:01;96524;;;7.24;52.88
2711;BME280;20721;47.402;8.550;2023-04-10T04:28:01;96520;;;7.18;53.01
2711;BME280;20721;47.402;8.550;2023-04-10T04:29:01;96525;;;7.15;53.20
2711;BME280;20721;47.402;8.550;2023-04-10T04:30:02;96525;;;7.17;53.03
2711;BME280;20721;47.402;8.550;2023-04-10T04:31:01;96523;;;7.20;53.05
2711;BME280;20721;47.402;8.550;2023-04-10T04:32:01;96521;;;7.21;53.11
2711;BME280;20721;47.402;8.550;2023-04-10T04:33:01;96525;;;7.22;53.03
2711;BME280;20721;47.402;8.550;2023-04-10T04:34:01;96522;;;7.25;52.96
2711;BME280;20721;47.402;8.550;2023-04-10T04:35:01;96521;;;7.26;52.97
2711;BME280;20721;47.402;8.550;2023-04-10T04:36:01;96522;;;7.23;53.14
2711;BME280;20721;47.402;8.550;2023-04-10T04:37:01;96523;;;7.25;53.05
2711;BME280;20721;47.402;8.550;2023-04-10T04:38:01;96523;;;7.24;52.96
2711;BME280;20721;47.402;8.550;2023-04-10T04:39:01;96521;;;7.23;53.08
2711;BME280;20721;47.402;8.550;2023-04-10T04:40:02;96526;;;7.20;53.13
2711;BME280;20721;47.402;8.550;2023-04-10T04:42:01;96528;;;7.19;53.17
2711;BME280;20721;47.402;8.550;2023-04-10T04:43:01;96532;;;7.21;53.23
2711;BME280;20721;47.402;8.550;2023-04-10T04:44:01;96534;;;7.20;53.23
2711;BME280;20721;47.402;8.550;2023-04-10T04:45:01;96535;;;7.19;53.28
2711;BME280;20721;47.402;8.550;2023-04-10T04:46:01;96536;;;7.18;53.16
2711;BME280;20721;47.402;8.550;2023-04-10T04:48:01;96536;;;7.21;53.25
2711;BME280;20721;47.402;8.550;2023-04-10T04:49:01;96533;;;7.23;53.35
2711;BME280;20721;47.402;8.550;2023-04-10T04:53:01;96539;;;7.25;53.30
2711;BME280;20721;47.402;8.550;2023-04-10T04:54:01;96542;;;7.24;53.30
2711;BME280;20721;47.402;8.550;2023-04-10T04:58:01;96544;;;7.23;53.20
2711;BME280;20721;47.402;8.550;2023-04-10T05:00:01;96547;;;7.24;53.34
2711;BME280;20721;47.402;8.550;2023-04-10T05:01:01;96549;;;7.26;53.17
2711;BME280;20721;47.402;8.550;2023-04-10T05:03:02;96556;;;7.25;53.37
2711;BME280;20721;47.402;8.550;2023-04-10T05:04:01;96556;;;7.23;53.37
2711;BME280;20721;47.402;8.550;2023-04-10T05:05:01;96556;;;7.22;53.40
2711;BME280;20721;47.402;8.550;2023-04-10T05:06:01;96555;;;7.21;53.35
2711;BME280;20721;47.402;8.550;2023-04-10T05:07:01;96555;;;7.19;53.38
2711;BME280;20721;47.402;8.550;2023-04-10T05:08:01;96559;;;7.18;53.41
2711;BME280;20721;47.402;8.550;2023-04-10T05:10:01;96552;;;7.17;53.42
2711;BME280;20721;47.402;8.550;2023-04-10T05:11:01;96552;;;7.19;53.49
2711;BME280;20721;47.402;8.550;2023-04-10T05:12:02;96553;;;7.20;53.50
2711;BME280;20721;47.402;8.550;2023-04-10T05:13:01;96552;;;7.21;53.41
2711;BME280;20721;47.402;8.550;2023-04-10T05:14:01;96550;;;7.23;53.30
2711;BME280;20721;47.402;8.550;2023-04-10T05:16:01;96546;;;7.22;53.33
2711;BME280;20721;47.402;8.550;2023-04-10T05:18:02;96550;;;7.21;53.34
2711;BME280;20721;47.402;8.550;2023-04-10T05:19:01;96553;;;7.19;53.37
2711;BME280;20721;47.402;8.550;2023-04-10T05:20:01;96556;;;7.16;53.57
2711;BME280;20721;47.402;8.550;2023-04-10T05:21:01;96554;;;7.14;53.54
2711;BME280;20721;47.402;8.550;2023-04-10T05:23:02;96547;;;7.15;53.68
2711;BME280;20721;47.402;8.550;2023-04-10T05:24:01;96549;;;7.20;53.63
2711;BME280;20721;47.402;8.550;2023-04-10T05:25:01;96545;;;7.23;53.68
2711;BME280;20721;47.402;8.550;2023-04-10T05:26:01;96544;;;7.24;53.78
2711;BME280;20721;47.402;8.550;2023-04-10T05:27:01;96540;;;7.28;53.80
2711;BME280;20721;47.402;8.550;2023-04-10T05:28:01;96541;;;7.32;53.71
2711;BME280;20721;47.402;8.550;2023-04-10T05:29:01;96544;;;7.35;53.70
2711;BME280;20721;47.402;8.550;2023-04-10T05:30:02;96544;;;7.38;53.63
2711;BME280;20721;47.402;8.550;2023-04-10T05:31:01;96540;;;7.40;53.52
2711;BME280;20721;47.402;8.550;2023-04-10T05:32:01;96540;;;7.43;53.38
2711;BME280;20721;47.402;8.550;2023-04-10T05:33:02;96542;;;7.45;53.42
2711;BME280;20721;47.402;8.550;2023-04-10T05:34:01;96544;;;7.51;53.33
2711;BME280;20721;47.402;8.550;2023-04-10T05:35:01;96546;;;7.57;53.19
2711;BME280;20721;47.402;8.550;2023-04-10T05:36:02;96549;;;7.61;53.23
2711;BME280;20721;47.402;8.550;2023-04-10T05:37:01;96549;;;7.66;53.23
2711;BME280;20721;47.402;8.550;2023-04-10T05:38:01;96553;;;7.70;53.13
2711;BME280;20721;47.402;8.550;2023-04-10T05:39:01;96550;;;7.74;53.11
2711;BME280;20721;47.402;8.550;2023-04-10T05:40:02;96552;;;7.78;53.00
2711;BME280;20721;47.402;8.550;2023-04-10T05:41:02;96553;;;7.84;52.90
2711;BME280;20721;47.402;8.550;2023-04-10T05:42:02;96553;;;7.88;52.84
2711;BME280;20721;47.402;8.550;2023-04-10T05:43:01;96551;;;7.94;52.76
2711;BME280;20721;47.402;8.550;2023-04-10T05:44:01;96551;;;8.01;52.67
2711;BME280;20721;47.402;8.550;2023-04-10T05:45:01;96550;;;8.08;52.51
2711;BME280;20721;47.402;8.550;2023-04-10T05:46:02;96551;;;8.14;52.31
2711;BME280;20721;47.402;8.550;2023-04-10T05:47:01;96552;;;8.20;52.13
2711;BME280;20721;47.402;8.550;2023-04-10T05:48:01;96554;;;8.26;52.09
2711;BME280;20721;47.402;8.550;2023-04-10T05:49:01;96550;;;8.30;52.00
2711;BME280;20721;47.402;8.550;2023-04-10T05:50:01;96552;;;8.37;51.78
2711;BME280;20721;47.402;8.550;2023-04-10T05:51:01;96554;;;8.45;51.70
2711;BME280;20721;47.402;8.550;2023-04-10T05:52:01;96554;;;8.48;51.57
2711;BME280;20721;47.402;8.550;2023-04-10T05:53:01;96556;;;8.55;51.54
2711;BME280;20721;47.402;8.550;2023-04-10T05:54:01;96554;;;8.59;51.41
2711;BME280;20721;47.402;8.550;2023-04-10T05:55:03;96558;;;8.65;51.38
2711;BME280;20721;47.402;8.550;2023-04-10T05:56:01;96554;;;8.71;51.10
2711;BME280;20721;47.402;8.550;2023-04-10T05:57:01;96559;;;8.77;51.06
2711;BME280;20721;47.402;8.550;2023-04-10T05:58:01;96559;;;8.82;50.94
2711;BME280;20721;47.402;8.550;2023-04-10T05:59:01;96555;;;8.83;50.77
2711;BME280;20721;47.402;8.550;2023-04-10T06:00:02;96560;;;8.87;50.78
2711;BME280;20721;47.402;8.550;2023-04-10T06:01:01;96554;;;8.91;50.73
2711;BME280;20721;47.402;8.550;2023-04-10T06:02:02;96554;;;8.96;50.66
2711;BME280;20721;47.402;8.550;2023-04-10T06:03:02;96558;;;8.99;50.47
2711;BME280;20721;47.402;8.550;2023-04-10T06:04:02;96558;;;9.04;50.21
2711;BME280;20721;47.402;8.550;2023-04-10T06:05:02;96561;;;9.08;50.25
2711;BME280;20721;47.402;8.550;2023-04-10T06:06:02;96557;;;9.10;50.14
2711;BME280;20721;47.402;8.550;2023-04-10T06:07:01;96556;;;9.14;50.10
2711;BME280;20721;47.402;8.550;2023-04-10T06:09:01;96555;;;9.15;50.21
2711;BME280;20721;47.402;8.550;2023-04-10T06:11:02;96558;;;9.17;50.25
2711;BME280;20721;47.402;8.550;2023-04-10T06:12:01;96557;;;9.21;50.22
2711;BME280;20721;47.402;8.550;2023-04-10T06:13:02;96557;;;9.26;50.19
2711;BME280;20721;47.402;8.550;2023-04-10T06:14:01;96560;;;9.33;50.08
2711;BME280;20721;47.402;8.550;2023-04-10T06:15:02;96559;;;9.38;49.91
2711;BME280;20721;47.402;8.550;2023-04-10T06:16:02;96562;;;9.42;49.83
2711;BME280;20721;47.402;8.550;2023-04-10T06:17:02;96563;;;9.45;49.72
2711;BME280;20721;47.402;8.550;2023-04-10T06:18:02;96560;;;9.51;49.69
2711;BME280;20721;47.402;8.550;2023-04-10T06:19:01;96561;;;9.57;49.56
2711;BME280;20721;47.402;8.550;2023-04-10T06:20:03;96564;;;9.63;49.39
2711;BME280;20721;47.402;8.550;2023-04-10T06:21:01;96562;;;9.69;49.34
2711;BME280;20721;47.402;8.550;2023-04-10T06:22:01;96563;;;9.74;49.22
2711;BME280;20721;47.402;8.550;2023-04-10T06:23:01;96563;;;9.79;49.11
2711;BME280;20721;47.402;8.550;2023-04-10T06:24:02;96563;;;9.84;49.05
2711;BME280;20721;47.402;8.550;2023-04-10T06:25:02;96563;;;9.89;49.01
2711;BME280;20721;47.402;8.550;2023-04-10T06:26:02;96563;;;9.95;48.91
2711;BME280;20721;47.402;8.550;2023-04-10T06:27:01;96562;;;10.01;48.82
2711;BME280;20721;47.402;8.550;2023-04-10T06:28:01;96564;;;10.06;48.69
2711;BME280;20721;47.402;8.550;2023-04-10T06:29:01;96563;;;10.12;48.56
2711;BME280;20721;47.402;8.550;2023-04-10T06:30:02;96568;;;10.19;48.43
2711;BME280;20721;47.402;8.550;2023-04-10T06:31:05;96566;;;10.21;48.18
2711;BME280;20721;47.402;8.550;2023-04-10T06:32:03;96566;;;10.27;48.12
2711;BME280;20721;47.402;8.550;2023-04-10T06:33:02;96567;;;10.32;48.07
2711;BME280;20721;47.402;8.550;2023-04-10T06:34:02;96566;;;10.38;47.86
2711;BME280;20721;47.402;8.550;2023-04-10T06:35:01;96565;;;10.44;47.81
2711;BME280;20721;47.402;8.550;2023-04-10T06:36:02;96566;;;10.51;47.66
2711;BME280;20721;47.402;8.550;2023-04-10T06:37:02;96564;;;10.58;47.41
2711;BME280;20721;47.402;8.550;2023-04-10T06:38:02;96562;;;10.65;47.40
2711;BME280;20721;47.402;8.550;2023-04-10T06:39:01;96561;;;10.72;47.22
2711;BME280;20721;47.402;8.550;2023-04-10T06:40:03;96561;;;10.77;46.66
2711;BME280;20721;47.402;8.550;2023-04-10T06:41:02;96561;;;10.83;46.68
2711;BME280;20721;47.402;8.550;2023-04-10T06:42:02;96564;;;10.89;46.37
2711;BME280;20721;47.402;8.550;2023-04-10T06:43:02;96564;;;10.94;46.20
2711;BME280;20721;47.402;8.550;2023-04-10T06:44:03;96568;;;10.98;46.15
2711;BME280;20721;47.402;8.550;2023-04-10T06:45:02;96566;;;11.01;46.09
2711;BME280;20721;47.402;8.550;2023-04-10T06:46:02;96564;;;11.03;46.03
2711;BME280;20721;47.402;8.550;2023-04-10T06:47:02;96566;;;11.12;46.02
2711;BME280;20721;47.402;8.550;2023-04-10T06:48:02;96566;;;11.16;45.98
2711;BME280;20721;47.402;8.550;2023-04-10T06:49:02;96566;;;11.25;45.91
2711;BME280;20721;47.402;8.550;2023-04-10T06:50:02;96562;;;11.35;45.77
2711;BME280;20721;47.402;8.550;2023-04-10T06:51:02;96564;;;11.42;45.63
2711;BME280;20721;47.402;8.550;2023-04-10T06:52:02;96561;;;11.54;45.21